Time;durP1;ratioP1;P1;durP2;ratioP2;P2;SDS_P1;SDS_P2;PMS_P1;PMS_P2;Temp;Humidity;BMP_temperature;BMP_pressure;BME280_temperature;BME280_humidity;BME280_pressure;Samples;Min_cycle;Max_cycle;Signal;HPM_P1;HPM_P2
2024/01/27 00:01:56;;;;;;;;;34.75;32.75;;;;;7.21;63.54;103027.56;5040267;28;63214;-70
2024/01/27 00:04:22;;;;;;;;;33.00;28.25;;;;;7.20;63.17;103031.00;5044023;28;69220;-71
2024/01/27 00:06:47;;;;;;;;;32.25;23.25;;;;;7.17;63.52;103040.47;5048978;28;59630;-70
2024/01/27 00:09:12;;;;;;;;;44.75;34.00;;;;;7.16;63.62;103039.59;5045636;28;75318;-71
2024/01/27 00:11:38;;;;;;;;;34.75;31.75;;;;;7.16;63.85;103036.97;5045542;28;70081;-71
2024/01/27 00:14:03;;;;;;;;;45.25;32.75;;;;;7.16;63.89;103030.91;5044398;28;45279;-70
2024/01/27 00:16:28;;;;;;;;;43.25;33.75;;;;;7.17;63.91;103030.94;5054302;28;46236;-71
2024/01/27 00:18:53;;;;;;;;;43.50;34.25;;;;;7.14;64.26;103025.66;5052489;28;72929;-69
2024/01/27 00:21:19;;;;;;;;;49.50;35.00;;;;;7.18;64.24;103040.50;5042120;28;75216;-70
2024/01/27 00:23:44;;;;;;;;;41.25;30.75;;;;;7.18;64.13;103039.63;5047186;28;66590;-70
2024/01/27 00:26:11;;;;;;;;;50.00;35.25;;;;;7.18;64.12;103052.66;5039053;28;72241;-71
2024/01/27 00:28:36;;;;;;;;;40.75;30.75;;;;;7.18;64.24;103042.22;5046100;28;45251;-71
2024/01/27 00:31:01;;;;;;;;;39.25;30.25;;;;;7.18;64.23;103048.31;5039748;28;45323;-71
2024/01/27 00:33:27;;;;;;;;;39.75;31.50;;;;;7.17;64.20;103051.78;5041620;28;68072;-71
2024/01/27 00:35:52;;;;;;;;;40.25;33.75;;;;;7.19;64.28;103051.81;5053815;28;71791;-71
2024/01/27 00:38:18;;;;;;;;;41.50;33.50;;;;;7.19;64.37;103052.69;5041706;28;47124;-71
2024/01/27 00:40:43;;;;;;;;;40.50;33.25;;;;;7.20;64.36;103043.16;5050345;28;45311;-71
2024/01/27 00:43:09;;;;;;;;;50.50;36.75;;;;;7.21;64.39;103043.19;5048462;28;45381;-71
2024/01/27 00:45:34;;;;;;;;;53.00;35.25;;;;;7.22;64.50;103037.16;5054655;28;45331;-71
2024/01/27 00:47:59;;;;;;;;;39.00;32.75;;;;;7.21;64.72;103034.50;5055115;28;46980;-71
2024/01/27 00:50:25;;;;;;;;;43.00;36.00;;;;;7.23;64.63;103032.81;5049206;28;70934;-71
2024/01/27 00:52:50;;;;;;;;;46.50;36.25;;;;;7.23;64.80;103046.69;5056281;28;45249;-71
2024/01/27 00:55:17;;;;;;;;;54.25;36.50;;;;;7.25;64.88;103048.47;5056759;28;52641;-71
2024/01/27 00:57:42;;;;;;;;;47.50;34.50;;;;;7.25;65.11;103045.88;5047999;28;46233;-71
2024/01/27 01:00:09;;;;;;;;;53.25;40.25;;;;;7.26;65.11;103032.00;5043106;28;45326;-71
2024/01/27 01:02:34;;;;;;;;;52.50;37.00;;;;;7.26;65.11;103035.50;5048017;28;45471;-71
2024/01/27 01:05:00;;;;;;;;;52.00;37.00;;;;;7.26;65.13;103037.19;5040231;28;45237;-71
2024/01/27 01:07:25;;;;;;;;;43.00;32.50;;;;;7.26;64.91;103042.41;5042910;28;45290;-71
2024/01/27 01:09:50;;;;;;;;;37.00;32.75;;;;;7.26;64.99;103039.81;5043365;28;56333;-71
2024/01/27 01:12:16;;;;;;;;;37.25;30.25;;;;;7.25;64.89;103030.25;5044604;28;69192;-70
2024/01/27 01:14:42;;;;;;;;;172.00;136.67;;;;;7.28;65.00;103032.91;5047725;28;45274;-71
2024/01/27 01:17:07;;;;;;;;;53.75;43.75;;;;;7.29;65.12;103024.25;5045503;28;45473;-72
2024/01/27 01:19:33;;;;;;;;;40.25;32.50;;;;;7.26;64.92;103017.28;5053643;28;47573;-71
2024/01/27 01:21:58;;;;;;;;;46.75;36.75;;;;;7.25;65.33;103025.91;5041575;28;63246;-71
2024/01/27 01:24:23;;;;;;;;;54.25;41.50;;;;;7.26;65.30;103026.78;5050396;28;63796;-71
2024/01/27 01:26:49;;;;;;;;;57.50;41.25;;;;;7.22;65.49;103011.09;5043899;28;70577;-70
2024/01/27 01:29:14;;;;;;;;;58.67;40.00;;;;;7.22;65.41;103020.63;5039209;28;71400;-70
2024/01/27 01:31:42;;;;;;;;;56.50;39.75;;;;;7.18;65.58;103013.59;5053539;28;55052;-70
2024/01/27 01:34:08;;;;;;;;;51.75;38.00;;;;;7.15;65.60;103021.31;5042358;28;45525;-71
2024/01/27 01:36:33;;;;;;;;;55.25;41.00;;;;;7.07;65.79;103015.06;5046278;28;72420;-71
2024/01/27 01:38:58;;;;;;;;;55.00;40.75;;;;;7.04;65.87;103008.91;5045293;28;73012;-71
2024/01/27 01:41:24;;;;;;;;;59.50;44.25;;;;;7.02;65.93;103008.00;5077797;27;59422;-71
2024/01/27 01:43:49;;;;;;;;;53.50;39.50;;;;;6.98;65.92;103006.19;5049097;28;45660;-71
2024/01/27 01:46:14;;;;;;;;;56.67;43.67;;;;;6.95;66.16;103008.69;5049540;28;74904;-71
2024/01/27 01:48:40;;;;;;;;;106.00;89.00;;;;;6.93;66.33;103017.31;5046119;28;66737;-72
2024/01/27 01:51:05;;;;;;;;;55.75;41.75;;;;;6.93;66.47;103012.13;5049955;28;63175;-70
2024/01/27 01:53:31;;;;;;;;;51.25;41.00;;;;;6.90;66.17;103010.31;5084381;27;69002;-70
2024/01/27 01:55:56;;;;;;;;;46.50;39.00;;;;;6.86;66.36;103005.88;5053097;28;46278;-70
2024/01/27 01:58:22;;;;;;;;;50.75;39.00;;;;;6.81;66.38;103004.88;5051095;28;45330;-70
2024/01/27 02:00:47;;;;;;;;;58.75;39.25;;;;;6.71;66.47;102993.38;5049833;28;45469;-72
2024/01/27 02:03:13;;;;;;;;;45.00;36.75;;;;;6.73;66.84;103020.31;5047639;28;72005;-70
2024/01/27 02:05:39;;;;;;;;;50.50;38.75;;;;;6.71;66.79;103018.47;5045008;28;46115;-70
2024/01/27 02:08:04;;;;;;;;;49.25;37.25;;;;;6.63;67.02;103023.50;5041518;28;47131;-70
2024/01/27 02:10:36;;;;;;;;;59.75;43.50;;;;;6.61;67.15;103030.38;5048975;28;45375;-71
2024/01/27 02:13:02;;;;;;;;;59.75;41.25;;;;;6.58;67.31;103023.38;5042233;28;45366;-70
2024/01/27 02:15:27;;;;;;;;;54.00;41.75;;;;;6.56;67.65;103019.84;5046079;28;45591;-71
2024/01/27 02:17:52;;;;;;;;;51.25;42.00;;;;;6.51;67.41;103016.25;5040633;28;68117;-71
2024/01/27 02:20:18;;;;;;;;;49.25;38.50;;;;;6.49;67.52;103011.84;5057376;28;45406;-71
2024/01/27 02:22:43;;;;;;;;;58.00;39.25;;;;;6.47;67.76;103011.81;5045651;28;65492;-71
2024/01/27 02:25:08;;;;;;;;;51.50;36.50;;;;;6.44;67.86;103006.50;5049050;28;46059;-71
2024/01/27 02:27:34;;;;;;;;;43.00;35.75;;;;;6.45;68.12;103008.28;5053160;28;55958;-71
2024/01/27 02:29:59;;;;;;;;;49.50;40.00;;;;;6.44;67.86;103011.72;5057357;28;53783;-70
2024/01/27 02:32:24;;;;;;;;;48.00;36.25;;;;;6.43;68.00;103004.78;5044097;28;45534;-71
2024/01/27 02:34:50;;;;;;;;;48.75;37.75;;;;;6.42;68.20;103001.28;5047149;28;75597;-70
2024/01/27 02:37:15;;;;;;;;;50.00;37.67;;;;;6.41;68.24;102996.94;5042827;28;71242;-72
2024/01/27 02:39:40;;;;;;;;;53.50;39.00;;;;;6.38;68.28;102994.22;5041484;28;59516;-70
2024/01/27 02:42:06;;;;;;;;;42.00;36.00;;;;;6.38;68.40;102994.22;5043595;28;67243;-70
2024/01/27 02:44:31;;;;;;;;;54.00;38.75;;;;;6.34;68.51;102994.09;5049652;28;46468;-70
2024/01/27 02:46:57;;;;;;;;;43.50;34.00;;;;;6.34;68.47;102991.50;5045097;28;54512;-70
2024/01/27 02:49:22;;;;;;;;;40.75;27.00;;;;;6.34;68.44;102983.69;5046643;28;69244;-70
2024/01/27 02:51:47;;;;;;;;;49.67;38.00;;;;;6.33;68.74;103001.03;5048062;28;72163;-70
2024/01/27 02:54:13;;;;;;;;;43.00;36.25;;;;;6.32;68.75;102999.28;5048235;28;46786;-70
2024/01/27 02:56:38;;;;;;;;;39.25;33.25;;;;;6.30;68.87;102989.66;5048999;28;50521;-70
2024/01/27 02:59:04;;;;;;;;;41.00;32.00;;;;;6.30;68.95;102987.06;5054652;28;63136;-70
2024/01/27 03:01:29;;;;;;;;;43.00;34.25;;;;;6.30;69.16;102993.13;5044666;28;45461;-70
2024/01/27 03:03:54;;;;;;;;;43.33;33.33;;;;;6.30;69.24;102989.66;5050022;28;75459;-70
2024/01/27 03:06:19;;;;;;;;;48.67;36.00;;;;;6.29;69.30;102996.59;5058373;28;71365;-70
2024/01/27 03:08:45;;;;;;;;;62.00;46.67;;;;;6.29;69.24;102996.59;5050423;28;63770;-69
2024/01/27 03:11:10;;;;;;;;;46.33;37.00;;;;;6.29;69.23;102994.00;5044344;28;66797;-69
2024/01/27 03:13:36;;;;;;;;;40.00;33.50;;;;;6.27;69.46;102985.28;5042910;28;45408;-69
2024/01/27 03:16:01;;;;;;;;;39.25;35.00;;;;;6.24;69.39;102974.78;5043481;28;45262;-69
2024/01/27 03:18:27;;;;;;;;;50.75;33.50;;;;;6.24;69.37;102988.66;5044923;28;45943;-69
2024/01/27 03:20:52;;;;;;;;;34.75;30.50;;;;;6.22;69.30;102979.94;5049495;28;49395;-69
2024/01/27 03:23:17;;;;;;;;;44.67;32.67;;;;;6.24;69.52;102972.19;5050454;28;75480;-70
2024/01/27 03:25:43;;;;;;;;;31.25;30.00;;;;;6.23;69.41;102973.00;5042357;28;52390;-69
2024/01/27 03:28:08;;;;;;;;;39.25;31.50;;;;;6.21;69.43;102977.28;5042874;28;56626;-70
2024/01/27 03:30:33;;;;;;;;;38.50;33.00;;;;;6.17;69.38;102976.31;5042037;28;65233;-69
2024/01/27 03:32:59;;;;;;;;;33.25;29.75;;;;;6.15;69.37;102974.53;5043641;28;75926;-70
2024/01/27 03:35:24;;;;;;;;;44.25;34.00;;;;;6.13;69.31;102979.69;5045592;28;66709;-69
2024/01/27 03:37:51;;;;;;;;;47.25;34.00;;;;;6.12;69.32;102977.91;5044205;28;58902;-70
2024/01/27 03:40:16;;;;;;;;;44.00;35.25;;;;;6.08;69.32;102981.28;5047386;28;45509;-69
2024/01/27 03:42:41;;;;;;;;;40.75;30.75;;;;;6.05;69.76;102971.66;5044000;28;45395;-69
2024/01/27 03:45:07;;;;;;;;;43.00;31.25;;;;;6.03;69.63;102977.66;5050153;28;65220;-69
2024/01/27 03:47:32;;;;;;;;;35.50;32.50;;;;;6.00;69.57;102980.16;5044047;28;45435;-69
2024/01/27 03:49:58;;;;;;;;;41.75;32.50;;;;;5.98;69.69;102976.66;5043276;28;61004;-69
2024/01/27 03:52:23;;;;;;;;;37.00;30.25;;;;;5.97;69.62;102980.97;5052790;28;46823;-70
2024/01/27 03:54:48;;;;;;;;;39.75;32.50;;;;;5.94;69.70;102965.25;5047150;28;67483;-70
2024/01/27 03:57:14;;;;;;;;;35.75;26.00;;;;;5.93;69.69;102967.81;5045487;28;66192;-70
2024/01/27 03:59:42;;;;;;;;;64.00;48.33;;;;;5.90;69.95;102960.81;5042764;28;73275;-69
2024/01/27 04:02:07;;;;;;;;;27.75;23.75;;;;;5.90;69.81;102964.28;5038994;28;76428;-70
2024/01/27 04:04:33;;;;;;;;;32.50;30.00;;;;;5.90;69.87;102964.28;5056461;28;72185;-69
2024/01/27 04:06:58;;;;;;;;;32.25;27.50;;;;;5.92;69.91;102968.66;5050021;28;68872;-69
2024/01/27 04:09:24;;;;;;;;;24.75;15.00;;;;;5.90;70.07;102961.69;5044781;28;45368;-69
2024/01/27 04:11:49;;;;;;;;;32.75;23.75;;;;;5.90;69.99;102964.28;5053964;28;45780;-70
2024/01/27 04:14:14;;;;;;;;;32.50;27.00;;;;;5.90;69.86;102959.09;5051043;28;45405;-70
2024/01/27 04:16:40;;;;;;;;;41.25;30.00;;;;;5.92;70.06;102968.66;5044967;28;68271;-69
2024/01/27 04:19:05;;;;;;;;;37.50;28.00;;;;;5.91;70.13;102970.38;5042022;28;45472;-70
2024/01/27 04:21:30;;;;;;;;;36.75;27.50;;;;;5.90;70.37;102968.63;5045581;28;69375;-70
2024/01/27 04:23:56;;;;;;;;;30.75;24.00;;;;;5.92;70.45;102971.25;5041036;28;45396;-70
2024/01/27 04:26:21;;;;;;;;;36.25;27.00;;;;;5.93;70.43;102973.00;5048318;28;45520;-70
2024/01/27 04:28:46;;;;;;;;;37.75;30.75;;;;;5.93;70.30;102973.00;5045830;28;45461;-70
2024/01/27 04:31:12;;;;;;;;;31.00;26.00;;;;;5.93;70.52;102973.00;5046709;28;75291;-70
2024/01/27 04:33:37;;;;;;;;;36.25;30.50;;;;;5.90;70.50;102971.22;5041830;28;66729;-69
2024/01/27 04:36:03;;;;;;;;;44.25;34.25;;;;;5.89;70.55;102983.31;5043083;28;45444;-69
2024/01/27 04:38:28;;;;;;;;;36.50;32.00;;;;;5.88;70.42;102988.50;5043387;28;45485;-69
2024/01/27 04:40:53;;;;;;;;;35.67;27.33;;;;;5.85;70.43;102991.88;5042735;28;75262;-68
2024/01/27 04:43:20;;;;;;;;;43.00;36.00;;;;;5.80;70.47;102993.44;5046621;28;73239;-69
2024/01/27 04:45:45;;;;;;;;;54.00;39.00;;;;;5.77;70.81;102990.78;5058375;28;45389;-68
2024/01/27 04:48:11;;;;;;;;;52.75;38.50;;;;;5.75;70.81;102989.81;5045055;28;45258;-68
2024/01/27 04:50:36;;;;;;;;;45.75;37.50;;;;;5.74;70.97;102990.69;5041154;28;47912;-69
2024/01/27 04:53:02;;;;;;;;;49.25;39.25;;;;;5.74;71.17;102979.38;5044410;28;72051;-69
2024/01/27 04:55:27;;;;;;;;;46.50;39.00;;;;;5.74;71.32;102988.09;5051914;28;45276;-69
2024/01/27 04:57:53;;;;;;;;;53.25;40.00;;;;;5.74;71.23;102981.97;5046614;28;52033;-69
2024/01/27 05:00:18;;;;;;;;;55.25;40.50;;;;;5.75;71.27;102974.25;5043034;28;46102;-69
2024/01/27 05:02:45;;;;;;;;;51.75;41.25;;;;;5.73;71.40;102986.31;5049277;28;45264;-69
2024/01/27 05:05:11;;;;;;;;;52.00;37.00;;;;;5.68;71.67;102986.19;5047688;28;45276;-69
2024/01/27 05:07:37;;;;;;;;;46.50;39.00;;;;;5.67;71.52;102986.16;5047978;28;45268;-69
2024/01/27 05:10:02;;;;;;;;;52.75;39.75;;;;;5.65;71.43;102986.09;5050731;28;46055;-69
2024/01/27 05:12:28;;;;;;;;;56.75;42.00;;;;;5.64;71.65;102984.31;5054000;28;45361;-69
2024/01/27 05:14:53;;;;;;;;;56.75;39.75;;;;;5.60;71.86;102992.00;5051922;28;45237;-68
2024/01/27 05:17:19;;;;;;;;;50.25;42.25;;;;;5.58;71.83;102993.63;5055229;28;55671;-68
2024/01/27 05:19:44;;;;;;;;;54.75;43.00;;;;;5.54;72.11;103000.44;5050555;28;65572;-69
2024/01/27 05:22:09;;;;;;;;;59.33;42.33;;;;;5.51;72.11;103010.78;5049979;28;66607;-69
2024/01/27 05:24:35;;;;;;;;;59.33;46.33;;;;;5.49;72.36;103000.34;5043785;28;66116;-69
2024/01/27 05:27:00;;;;;;;;;48.50;40.50;;;;;5.50;72.33;103003.81;5048130;28;45330;-69
2024/01/27 05:29:27;;;;;;;;;56.50;41.75;;;;;5.51;72.42;103002.97;5042477;28;59130;-68
2024/01/27 05:31:53;;;;;;;;;55.75;42.25;;;;;5.50;72.50;103001.22;5048163;28;45832;-68
2024/01/27 05:34:18;;;;;;;;;56.25;42.50;;;;;5.50;72.68;102998.59;5040355;28;45527;-69
2024/01/27 05:36:43;;;;;;;;;57.00;40.00;;;;;5.50;72.75;102988.22;5048570;28;45366;-69
2024/01/27 05:39:09;;;;;;;;;55.00;45.67;;;;;5.50;72.83;102994.28;5044616;28;75846;-69
2024/01/27 05:41:34;;;;;;;;;53.25;39.75;;;;;5.52;73.03;102994.34;5057552;28;46306;-69
2024/01/27 05:43:59;;;;;;;;;53.75;43.00;;;;;5.51;72.86;102985.66;5045189;28;55261;-69
2024/01/27 05:46:25;;;;;;;;;57.75;42.50;;;;;5.50;72.94;102988.22;5046200;28;73311;-69
2024/01/27 05:48:53;;;;;;;;;57.00;44.00;;;;;5.51;72.87;102992.59;5040385;28;45501;-69
2024/01/27 05:51:19;;;;;;;;;55.25;43.00;;;;;5.49;73.01;102987.34;5049849;28;45403;-69
2024/01/27 05:53:44;;;;;;;;;58.25;44.50;;;;;5.51;72.91;102988.28;5045071;28;45182;-69
2024/01/27 05:56:09;;;;;;;;;48.00;39.67;;;;;5.50;73.04;102989.09;5060884;28;70609;-69
2024/01/27 05:58:34;;;;;;;;;57.50;45.25;;;;;5.49;73.17;102982.16;5045371;28;70752;-69
2024/01/27 06:01:00;;;;;;;;;58.75;42.25;;;;;5.49;72.90;102976.09;5047144;28;57548;-69
2024/01/27 06:03:26;;;;;;;;;57.67;42.00;;;;;5.49;73.23;102978.69;5046103;28;68412;-69
2024/01/27 06:05:51;;;;;;;;;64.50;44.50;;;;;5.51;73.01;102977.00;5056929;28;45464;-70
2024/01/27 06:08:18;;;;;;;;;50.25;36.50;;;;;5.50;73.26;102981.31;5046132;28;54992;-70
2024/01/27 06:10:43;;;;;;;;;54.75;39.00;;;;;5.48;73.24;102977.78;5050960;28;45811;-69
2024/01/27 06:13:08;;;;;;;;;47.33;36.67;;;;;5.52;73.33;102981.34;5041323;28;68713;-69
2024/01/27 06:15:34;;;;;;;;;44.00;35.33;;;;;5.53;73.45;102985.72;5054767;28;69592;-69
2024/01/27 06:17:59;;;;;;;;;48.00;36.25;;;;;5.54;73.47;102991.78;5048353;28;63829;-69
2024/01/27 06:20:24;;;;;;;;;46.75;35.25;;;;;5.55;73.49;102994.44;5052859;28;45302;-69
2024/01/27 06:22:50;;;;;;;;;60.00;44.00;;;;;5.56;73.31;102997.91;5047472;28;68208;-68
2024/01/27 06:25:16;;;;;;;;;58.33;48.00;;;;;5.53;73.30;102985.72;5043641;28;60902;-69
2024/01/27 06:27:42;;;;;;;;;58.25;42.25;;;;;5.53;73.02;102990.03;5044636;28;46221;-69
2024/01/27 06:30:08;;;;;;;;;63.25;48.00;;;;;5.51;73.31;102985.66;5045423;28;67785;-68
2024/01/27 06:32:33;;;;;;;;;60.75;45.25;;;;;5.49;73.28;102979.56;5045961;28;45312;-70
2024/01/27 06:34:58;;;;;;;;;60.25;47.00;;;;;5.50;73.33;102981.31;5044337;28;59791;-69
2024/01/27 06:37:24;;;;;;;;;62.67;44.67;;;;;5.49;73.27;102986.47;5041223;28;74213;-69
2024/01/27 06:39:49;;;;;;;;;59.33;45.00;;;;;5.48;73.23;102984.69;5046624;28;65055;-70
2024/01/27 06:42:14;;;;;;;;;57.25;45.25;;;;;5.47;73.22;102982.94;5041191;28;56265;-70
2024/01/27 06:44:40;;;;;;;;;65.25;47.50;;;;;5.47;73.43;102980.31;5046985;28;59323;-70
2024/01/27 06:47:05;;;;;;;;;57.00;44.50;;;;;5.44;73.68;102972.47;5053269;28;45870;-70
2024/01/27 06:49:31;;;;;;;;;57.33;44.67;;;;;5.45;73.51;102989.78;5047145;28;61869;-69
2024/01/27 06:51:56;;;;;;;;;60.25;44.75;;;;;5.43;73.48;102988.88;5045176;28;45367;-70
2024/01/27 06:54:22;;;;;;;;;66.75;48.25;;;;;5.42;73.67;102989.69;5045986;28;45295;-69
2024/01/27 06:56:47;;;;;;;;;62.67;44.00;;;;;5.41;73.64;102995.75;5042874;28;75217;-71
2024/01/27 06:59:12;;;;;;;;;51.67;43.33;;;;;5.40;73.58;102989.66;5047990;28;72133;-70
2024/01/27 07:01:37;;;;;;;;;60.00;44.00;;;;;5.40;73.47;102983.56;5034937;28;69534;-70
2024/01/27 07:04:03;;;;;;;;;47.67;39.33;;;;;5.37;73.63;102986.97;5049347;28;73149;-69
2024/01/27 07:06:28;;;;;;;;;49.25;38.75;;;;;5.37;73.69;102983.50;5050596;28;46245;-69
2024/01/27 07:08:54;;;;;;;;;53.50;39.00;;;;;5.37;73.75;102983.50;5040009;28;48622;-69
2024/01/27 07:11:19;;;;;;;;;39.75;34.00;;;;;5.38;73.80;102980.06;5040835;28;56586;-69
2024/01/27 07:13:44;;;;;;;;;45.33;33.67;;;;;5.38;73.90;102969.66;5055544;28;65597;-67
2024/01/27 07:16:09;;;;;;;;;38.00;34.67;;;;;5.40;74.01;102975.78;5046048;27;77277;-69
2024/01/27 07:18:35;;;;;;;;;29.00;26.25;;;;;5.42;74.31;102987.09;5048093;28;47393;-74
2024/01/27 07:21:01;;;;;;;;;47.50;34.00;;;;;5.46;74.04;102991.56;5040726;28;45307;-65
2024/01/27 07:23:27;;;;;;;;;40.00;31.75;;;;;5.48;74.18;102992.50;5050861;28;45249;-68
2024/01/27 07:25:52;;;;;;;;;42.00;33.75;;;;;5.48;74.19;102982.09;5080254;27;46860;-67
2024/01/27 07:28:18;;;;;;;;;44.50;34.75;;;;;5.53;74.23;102990.03;5041194;28;45527;-68
2024/01/27 07:30:44;;;;;;;;;39.25;31.25;;;;;5.55;73.86;102991.84;5044175;28;45426;-69
2024/01/27 07:33:09;;;;;;;;;51.50;38.75;;;;;5.55;73.64;102999.63;5045381;28;45329;-70
2024/01/27 07:35:35;;;;;;;;;54.50;39.50;;;;;5.54;73.38;103002.19;5047510;28;46110;-68
2024/01/27 07:38:01;;;;;;;;;43.75;37.25;;;;;5.51;73.42;103000.38;5043506;28;45481;-69
2024/01/27 07:40:26;;;;;;;;;55.00;39.67;;;;;5.49;73.32;103000.34;5038542;28;66703;-67
2024/01/27 07:42:52;;;;;;;;;51.00;39.00;;;;;5.48;73.19;102995.09;5042272;28;72011;-68
2024/01/27 07:45:17;;;;;;;;;57.75;39.75;;;;;5.47;73.04;103008.91;5040943;28;46220;-70
2024/01/27 07:47:42;;;;;;;;;58.75;39.50;;;;;5.43;72.95;103005.31;5047596;28;45468;-68
2024/01/27 07:50:09;;;;;;;;;49.00;38.50;;;;;5.42;73.02;103011.38;5046315;28;46542;-64
2024/01/27 07:52:35;;;;;;;;;44.50;37.00;;;;;5.40;73.09;103002.66;5041204;28;45422;-67
2024/01/27 07:55:00;;;;;;;;;48.50;38.00;;;;;5.39;73.16;103000.00;5044913;28;45499;-63
2024/01/27 07:57:25;;;;;;;;;41.67;37.00;;;;;5.40;73.02;102992.25;5050240;28;70485;-65
2024/01/27 07:59:51;;;;;;;;;50.00;35.00;;;;;5.38;73.04;102988.72;5047038;28;65122;-68
2024/01/27 08:02:16;;;;;;;;;54.50;38.75;;;;;5.40;73.04;102992.25;5043946;28;73085;-63
2024/01/27 08:04:41;;;;;;;;;39.00;32.50;;;;;5.42;73.16;102987.09;5039082;28;45542;-68
2024/01/27 08:07:09;;;;;;;;;47.75;37.00;;;;;5.44;73.29;102996.72;5049644;28;71430;-68
2024/01/27 08:09:35;;;;;;;;;38.75;27.50;;;;;5.44;72.99;102988.91;5044063;28;45368;-74
2024/01/27 08:12:01;;;;;;;;;29.50;24.00;;;;;5.48;73.37;103003.75;5038544;28;45485;-74
2024/01/27 08:14:27;;;;;;;;;35.50;25.25;;;;;5.52;73.34;102999.53;5047905;28;46603;-71
2024/01/27 08:16:52;;;;;;;;;23.25;21.75;;;;;5.58;73.51;103004.03;5055772;28;45317;-71
2024/01/27 08:19:20;;;;;;;;;24.25;18.00;;;;;5.64;73.34;103015.50;5044059;28;54962;-66
2024/01/27 08:21:46;;;;;;;;;23.25;16.50;;;;;5.72;73.42;103007.94;5038095;28;45244;-70
2024/01/27 08:24:13;;;;;;;;;13.25;12.00;;;;;5.78;73.06;103015.91;5043293;28;46089;-71
2024/01/27 08:26:38;;;;;;;;;14.00;12.25;;;;;5.84;73.20;103010.91;5035334;27;46132;-68
2024/01/27 08:29:04;;;;;;;;;11.00;8.00;;;;;5.91;72.79;103011.94;5036015;28;67131;-66
2024/01/27 08:31:29;;;;;;;;;11.00;8.25;;;;;5.98;72.32;103008.72;5079366;27;67978;-65
2024/01/27 08:33:54;;;;;;;;;7.75;7.00;;;;;6.05;72.07;103001.97;5039588;28;72752;-64
2024/01/27 08:36:20;;;;;;;;;12.25;7.00;;;;;6.08;71.83;103000.34;5044948;28;45223;-63
2024/01/27 08:38:45;;;;;;;;;9.75;7.00;;;;;6.14;71.89;103002.22;5043689;28;68000;-60
2024/01/27 08:41:10;;;;;;;;;8.00;7.75;;;;;6.17;71.54;102997.13;5046914;28;74155;-61
2024/01/27 08:43:35;;;;;;;;;10.00;7.00;;;;;6.24;71.47;103000.78;5051401;28;75395;-61
2024/01/27 08:46:01;;;;;;;;;7.25;4.25;;;;;6.29;71.15;103001.78;5055598;28;72301;-60
2024/01/27 08:48:26;;;;;;;;;8.00;7.00;;;;;6.37;71.28;103007.19;5053517;28;45255;-60
2024/01/27 08:50:51;;;;;;;;;11.00;8.50;;;;;6.41;70.86;102999.53;5055058;28;65360;-60
2024/01/27 08:53:17;;;;;;;;;9.00;7.50;;;;;6.47;71.06;103006.59;5043153;28;73806;-60
2024/01/27 08:55:42;;;;;;;;;8.25;6.25;;;;;6.53;70.62;103001.56;5057617;28;49817;-61
2024/01/27 08:58:08;;;;;;;;;8.00;4.00;;;;;6.60;70.31;102997.41;5054107;28;45420;-61
2024/01/27 09:00:33;;;;;;;;;10.50;6.50;;;;;6.66;70.25;102994.97;5056976;28;45545;-62
2024/01/27 09:02:58;;;;;;;;;9.50;8.25;;;;;6.71;70.08;103000.28;5054448;28;45552;-62
2024/01/27 09:05:24;;;;;;;;;8.75;7.25;;;;;6.76;69.73;102991.72;5057398;28;45330;-62
2024/01/27 09:07:49;;;;;;;;;9.50;7.00;;;;;6.81;69.67;102984.06;5054693;28;45622;-61
2024/01/27 09:10:15;;;;;;;;;8.00;7.00;;;;;6.86;69.60;102981.56;5051035;28;47416;-62
2024/01/27 09:12:41;;;;;;;;;7.75;6.75;;;;;6.91;69.21;102986.03;5053659;28;45540;-62
2024/01/27 09:15:07;;;;;;;;;12.50;7.00;;;;;6.95;69.11;102987.00;5057315;28;45345;-62
2024/01/27 09:17:32;;;;;;;;;9.25;7.00;;;;;6.97;69.00;102978.38;5055260;28;45346;-62
2024/01/27 09:19:58;;;;;;;;;5.75;4.75;;;;;7.02;69.01;102981.09;5056938;28;61104;-60
2024/01/27 09:22:23;;;;;;;;;12.75;8.00;;;;;7.03;68.78;102970.72;5040390;28;72265;-61
2024/01/27 09:24:48;;;;;;;;;8.75;5.25;;;;;7.08;68.66;102978.63;5044607;28;65408;-61
2024/01/27 09:27:14;;;;;;;;;14.75;10.50;;;;;7.11;68.44;102967.41;5049832;28;45232;-61
2024/01/27 09:29:39;;;;;;;;;8.50;7.50;;;;;7.14;68.53;102954.47;5046807;28;69587;-61
2024/01/27 09:32:05;;;;;;;;;12.50;8.75;;;;;7.17;68.16;102963.25;5049912;28;45216;-61
2024/01/27 09:34:30;;;;;;;;;7.00;5.25;;;;;7.22;67.92;102973.75;5042066;28;45472;-61
2024/01/27 09:36:55;;;;;;;;;13.25;8.75;;;;;7.26;67.74;102972.09;5046815;28;68782;-61
2024/01/27 09:39:21;;;;;;;;;11.00;9.50;;;;;7.31;67.48;102975.69;5045710;28;71976;-61
2024/01/27 09:41:48;;;;;;;;;10.25;7.50;;;;;7.35;67.47;102970.59;5046633;28;69826;-61
2024/01/27 09:44:15;;;;;;;;;12.50;8.50;;;;;7.43;67.13;102969.88;5042085;28;45958;-61
2024/01/27 09:46:40;;;;;;;;;16.00;11.00;;;;;7.48;67.03;102971.72;5046566;28;45249;-61
2024/01/27 09:49:08;;;;;;;;;16.00;10.00;;;;;7.54;66.85;102968.38;5047220;28;45478;-61
2024/01/27 09:51:34;;;;;;;;;57.50;42.00;;;;;7.62;66.70;102974.63;5079134;27;68813;-60
2024/01/27 09:53:59;;;;;;;;;33.75;25.00;;;;;7.68;66.38;102982.56;5047343;28;62360;-61
2024/01/27 09:56:24;;;;;;;;;20.75;12.25;;;;;7.75;66.12;102986.19;5051180;28;45319;-60
2024/01/27 09:58:50;;;;;;;;;15.50;10.00;;;;;7.83;66.04;102986.38;5057335;28;48347;-60
2024/01/27 10:01:20;;;;;;;;;15.25;12.00;;;;;7.91;65.76;102984.78;5042359;28;46031;-61
2024/01/27 10:03:47;;;;;;;;;16.00;9.00;;;;;8.00;65.32;102982.34;5057332;28;45442;-61
2024/01/27 10:06:14;;;;;;;;;11.00;8.25;;;;;8.07;64.91;102980.75;5049005;28;45445;-59
2024/01/27 10:08:39;;;;;;;;;9.75;9.50;;;;;8.13;64.74;102986.97;5053219;28;45575;-60
2024/01/27 10:11:10;;;;;;;;;14.25;11.00;;;;;8.22;64.80;102996.72;5050691;28;45973;-60
2024/01/27 10:13:38;;;;;;;;;17.25;10.75;;;;;8.28;64.56;103004.66;5053951;28;45304;-58
2024/01/27 10:16:08;;;;;;;;;17.00;10.00;;;;;8.39;63.93;103001.38;5064231;28;68045;-61
2024/01/27 10:18:34;;;;;;;;;17.00;11.00;;;;;8.44;63.68;102994.53;5048765;28;45390;-62
2024/01/27 10:20:59;;;;;;;;;15.50;11.25;;;;;8.49;63.30;103001.59;5043019;28;46036;-62
2024/01/27 10:23:25;;;;;;;;;11.00;10.00;;;;;8.53;63.23;102986.88;5047954;28;45374;-62
2024/01/27 10:25:51;;;;;;;;;13.50;10.00;;;;;8.62;62.85;102994.84;5046243;28;45260;-62
2024/01/27 10:28:17;;;;;;;;;11.25;9.50;;;;;8.69;62.79;102991.53;5051471;28;45322;-59
2024/01/27 10:30:43;;;;;;;;;15.25;8.75;;;;;8.73;62.35;102982.88;5048650;28;46218;-59
2024/01/27 10:33:10;;;;;;;;;11.75;9.00;;;;;8.79;62.13;102989.06;5048256;28;45750;-60
2024/01/27 10:35:35;;;;;;;;;16.00;9.25;;;;;8.84;62.22;102987.41;5040816;28;45254;-60
2024/01/27 10:38:01;;;;;;;;;11.50;8.00;;;;;8.92;61.34;102993.63;5050524;28;45273;-60
2024/01/27 10:40:29;;;;;;;;;12.00;9.00;;;;;9.00;61.56;102989.41;5046714;28;74237;-60
2024/01/27 10:43:02;;;;;;;;;16.25;11.50;;;;;9.09;61.31;102997.38;5052080;28;45256;-60
2024/01/27 10:45:31;;;;;;;;;11.00;8.50;;;;;9.18;60.94;102987.94;5041637;28;45335;-60
2024/01/27 10:47:56;;;;;;;;;8.00;5.25;;;;;9.27;60.54;102990.69;5056637;28;45388;-60
2024/01/27 10:50:23;;;;;;;;;13.25;6.25;;;;;9.34;59.84;102982.06;5022703;28;69778;-60
2024/01/27 10:52:50;;;;;;;;;9.25;6.25;;;;;9.44;59.40;102975.25;5045152;28;45831;-60
2024/01/27 10:55:16;;;;;;;;;11.25;8.50;;;;;9.58;59.25;102973.72;5057217;28;45259;-60
2024/01/27 10:57:41;;;;;;;;;10.50;7.50;;;;;9.71;58.84;102964.28;5051810;28;45493;-61
2024/01/27 11:00:08;;;;;;;;;6.75;6.25;;;;;9.81;58.78;102968.78;5044425;28;71744;-61
2024/01/27 11:02:34;;;;;;;;;6.50;6.00;;;;;9.91;58.41;102968.88;5051705;28;45853;-62
2024/01/27 11:05:03;;;;;;;;;9.75;8.25;;;;;10.01;57.97;102962.91;5046661;28;45382;-61
2024/01/27 11:07:33;;;;;;;;;10.25;8.25;;;;;10.12;58.15;102963.00;5039746;28;45269;-60
2024/01/27 11:09:58;;;;;;;;;9.50;6.50;;;;;10.20;57.63;102954.38;5041955;28;46264;-62
2024/01/27 11:12:24;;;;;;;;;52.50;40.75;;;;;10.27;57.12;102948.34;5060563;28;52202;-60